Camargo, Spain
Current Conditions -  °F | °C
As of 7:00 AM on Wednesday 22 Oct 2014 (Local Time) from LEXJ Reporting Station
Broken Clouds Broken Clouds  
Wind Chill: 59°   Ceiling: 4000
Heat Index: 59°   Visibility: 6mi
Dew Point: 57°   Wind: 2mph
Humidity: 94%   Direction: 130°SE
Pressure: 30.45"   Gusts: NA
Location:  43.41°N, 3.88°W
Report Text: LEXJ 220500Z 13002KT 9999 SCT032 BKN040 15/14 Q1031
Loading
Personal Weather Stations






























Interactive Weather Map
Tropical Storm Tracking
New forecast layout! Learn more

10-Day Weather Forecast

Advertisements
Track Severe Weather on mobile